createdAt,value
2018-07-25T00:00:28.940Z,24.48
2018-07-25T00:02:57.900Z,24.37
2018-07-25T00:05:26.717Z,24.30
2018-07-25T00:07:55.379Z,24.21
2018-07-25T00:10:28.488Z,24.13
2018-07-25T00:12:57.292Z,24.08
2018-07-25T00:15:26.262Z,24.02
2018-07-25T00:17:55.052Z,23.98
2018-07-25T00:20:23.905Z,23.78
2018-07-25T00:22:52.658Z,23.64
2018-07-25T00:25:23.638Z,23.47
2018-07-25T00:27:52.485Z,23.32
2018-07-25T00:30:21.485Z,23.17
2018-07-25T00:32:50.497Z,23.14
2018-07-25T00:35:19.554Z,23.04
2018-07-25T00:37:51.267Z,22.96
2018-07-25T00:40:22.922Z,22.93
2018-07-25T00:42:51.854Z,22.96
2018-07-25T00:45:20.733Z,23.01
2018-07-25T00:47:49.667Z,23.04
2018-07-25T00:50:20.136Z,23.05
2018-07-25T00:52:49.048Z,23.03
2018-07-25T00:55:17.951Z,22.99
2018-07-25T00:57:46.920Z,22.85
2018-07-25T01:00:15.624Z,22.81
2018-07-25T01:02:44.161Z,22.74
2018-07-25T01:05:12.983Z,22.76
2018-07-25T01:07:41.632Z,22.70
2018-07-25T01:10:10.207Z,22.64
2018-07-25T01:12:39.229Z,22.57
2018-07-25T01:15:09.080Z,22.58
2018-07-25T01:17:38.183Z,22.55
2018-07-25T01:20:07.727Z,22.54
2018-07-25T01:22:36.583Z,22.50
2018-07-25T01:25:05.646Z,22.43
2018-07-25T01:27:34.340Z,22.47
2018-07-25T01:30:03.152Z,22.41
2018-07-25T01:32:32.092Z,22.31
2018-07-25T01:35:00.751Z,22.27
2018-07-25T01:37:29.367Z,22.23
2018-07-25T01:39:58.366Z,22.24
2018-07-25T01:42:27.041Z,22.21
2018-07-25T01:44:55.740Z,22.21
2018-07-25T01:47:24.305Z,22.17
2018-07-25T01:49:53.099Z,22.17
2018-07-25T01:52:21.684Z,22.10
2018-07-25T01:54:50.345Z,22.00
2018-07-25T01:57:18.991Z,21.96
2018-07-25T01:59:47.619Z,21.90
2018-07-25T02:02:19.934Z,21.82
2018-07-25T02:04:48.614Z,21.82
2018-07-25T02:07:17.180Z,21.76
2018-07-25T02:09:45.860Z,21.75
2018-07-25T02:12:14.496Z,21.75
2018-07-25T02:14:43.082Z,21.74
2018-07-25T02:17:11.699Z,21.69
2018-07-25T02:19:40.392Z,21.67
2018-07-25T02:22:09.145Z,21.66
2018-07-25T02:24:37.758Z,21.65
2018-07-25T02:27:06.555Z,21.64
2018-07-25T02:29:35.312Z,21.63
2018-07-25T02:32:07.736Z,21.61
2018-07-25T02:34:36.473Z,21.63
2018-07-25T02:37:05.175Z,21.61
2018-07-25T02:39:33.849Z,21.59
2018-07-25T02:42:02.433Z,21.57
2018-07-25T02:44:31.213Z,21.61
2018-07-25T02:46:59.942Z,21.52
2018-07-25T02:49:28.575Z,21.42
2018-07-25T02:52:01.006Z,21.42
2018-07-25T02:54:29.741Z,21.41
2018-07-25T02:56:58.602Z,21.38
2018-07-25T02:59:27.165Z,21.33
2018-07-25T03:01:55.804Z,21.25
2018-07-25T03:04:24.439Z,21.18
2018-07-25T03:06:53.038Z,21.14
2018-07-25T03:09:21.647Z,21.15
2018-07-25T03:11:50.296Z,21.13
2018-07-25T03:14:18.995Z,21.02
2018-07-25T03:16:47.592Z,21.01
2018-07-25T03:19:16.271Z,20.94
2018-07-25T03:21:45.919Z,20.82
2018-07-25T03:24:14.559Z,20.75
2018-07-25T03:26:43.155Z,20.72
2018-07-25T03:29:11.727Z,20.69
2018-07-25T03:31:40.454Z,20.58
2018-07-25T03:34:09.079Z,20.58
2018-07-25T03:36:37.614Z,20.49
2018-07-25T03:39:07.489Z,20.43
2018-07-25T03:41:36.223Z,20.43
2018-07-25T03:44:04.911Z,20.39
2018-07-25T03:46:33.654Z,20.35
2018-07-25T03:49:02.165Z,20.41
2018-07-25T03:51:30.867Z,20.40
2018-07-25T03:53:59.480Z,20.39
2018-07-25T03:56:28.351Z,20.26
2018-07-25T03:58:56.978Z,20.15
2018-07-25T04:01:25.600Z,20.02
2018-07-25T04:03:54.302Z,19.89
2018-07-25T04:06:22.920Z,19.78
2018-07-25T04:08:51.544Z,19.67
2018-07-25T04:11:20.271Z,19.65
2018-07-25T04:13:48.891Z,19.76
2018-07-25T04:16:17.615Z,19.95
2018-07-25T04:18:46.127Z,19.98
2018-07-25T04:21:14.905Z,19.93
2018-07-25T04:23:43.524Z,19.87
2018-07-25T04:26:12.309Z,19.88
2018-07-25T04:28:40.965Z,19.97
2018-07-25T04:31:10.515Z,20.06
2018-07-25T04:33:39.233Z,20.16
2018-07-25T04:36:07.819Z,20.27
2018-07-25T04:38:36.398Z,20.31
2018-07-25T04:41:05.133Z,20.31
2018-07-25T04:43:33.903Z,20.35
2018-07-25T04:46:02.636Z,20.43
2018-07-25T04:48:31.234Z,20.52
2018-07-25T04:50:59.896Z,20.63
2018-07-25T04:53:28.661Z,20.76
2018-07-25T04:55:57.385Z,20.85
2018-07-25T04:58:26.943Z,20.99
2018-07-25T05:00:55.693Z,21.08
2018-07-25T05:03:24.364Z,21.18
2018-07-25T05:05:53.114Z,21.24
2018-07-25T05:08:21.943Z,21.31
2018-07-25T05:10:50.806Z,21.35
2018-07-25T05:13:19.460Z,21.39
2018-07-25T05:15:48.179Z,21.43
2018-07-25T05:18:16.912Z,21.53
2018-07-25T05:20:45.713Z,21.64
2018-07-25T05:23:14.515Z,21.71
2018-07-25T05:25:43.212Z,21.79
2018-07-25T05:28:11.926Z,21.84
2018-07-25T05:30:40.619Z,21.91
2018-07-25T05:33:09.340Z,22.00
2018-07-25T05:35:38.078Z,22.02
2018-07-25T05:38:06.807Z,22.09
2018-07-25T05:40:35.387Z,22.13
2018-07-25T05:43:04.205Z,22.18
2018-07-25T05:45:32.931Z,22.26
2018-07-25T05:48:01.643Z,22.34
2018-07-25T05:50:30.369Z,22.42
2018-07-25T05:52:59.196Z,22.51
2018-07-25T05:55:28.073Z,22.57
2018-07-25T05:57:56.899Z,22.69
2018-07-25T06:00:25.566Z,22.84
2018-07-25T06:02:54.260Z,22.89
2018-07-25T06:05:22.906Z,22.98
2018-07-25T06:07:51.563Z,23.12
2018-07-25T06:10:20.181Z,23.23
2018-07-25T06:12:48.895Z,23.32
2018-07-25T06:15:17.697Z,23.43
2018-07-25T06:17:46.682Z,23.51
2018-07-25T06:20:15.757Z,23.66
2018-07-25T06:22:46.093Z,23.80
2018-07-25T06:25:15.227Z,23.92
2018-07-25T06:27:44.073Z,24.04
2018-07-25T06:30:12.831Z,24.15
2018-07-25T06:32:55.727Z,24.17
2018-07-25T06:35:24.453Z,24.21
2018-07-25T06:37:54.069Z,24.25
2018-07-25T06:40:22.780Z,24.33
2018-07-25T06:42:52.494Z,24.46
2018-07-25T06:45:21.274Z,24.58
2018-07-25T06:47:50.059Z,24.70
2018-07-25T06:50:19.632Z,24.77
2018-07-25T06:52:49.573Z,24.86
2018-07-25T06:55:18.246Z,24.96
2018-07-25T06:57:47.315Z,25.03
2018-07-25T07:00:16.073Z,25.03
2018-07-25T07:02:52.686Z,25.07
2018-07-25T07:05:21.466Z,25.15
2018-07-25T07:07:50.513Z,25.25
2018-07-25T07:10:19.184Z,25.31
2018-07-25T07:12:47.927Z,25.38
2018-07-25T07:15:16.552Z,25.47
2018-07-25T07:17:45.250Z,25.58
2018-07-25T07:20:13.888Z,25.68
2018-07-25T07:22:42.537Z,25.80
2018-07-25T07:25:18.925Z,25.83
2018-07-25T07:27:47.728Z,25.86
2018-07-25T07:30:16.428Z,25.96
2018-07-25T07:32:45.594Z,26.06
2018-07-25T07:35:18.058Z,26.14
2018-07-25T07:37:47.800Z,26.24
2018-07-25T07:40:16.456Z,26.34
2018-07-25T07:42:45.094Z,26.47
2018-07-25T07:45:30.738Z,26.61
2018-07-25T07:47:59.384Z,26.71
2018-07-25T07:50:27.999Z,26.84
2018-07-25T07:52:56.819Z,26.86
2018-07-25T07:55:28.736Z,26.91
2018-07-25T07:57:57.485Z,26.99
2018-07-25T08:00:26.376Z,27.09
2018-07-25T08:02:55.230Z,27.24
2018-07-25T08:05:25.027Z,27.30
2018-07-25T08:07:53.757Z,27.39
2018-07-25T08:10:22.490Z,27.46
2018-07-25T08:12:51.259Z,27.60
2018-07-25T08:15:20.290Z,27.64
2018-07-25T08:17:49.002Z,27.83
2018-07-25T08:20:17.675Z,27.94
2018-07-25T08:22:46.316Z,28.09
2018-07-25T08:25:28.695Z,28.20
2018-07-25T08:27:57.470Z,28.24
2018-07-25T08:30:26.121Z,28.30
2018-07-25T08:32:54.777Z,28.39
2018-07-25T08:35:31.853Z,28.45
2018-07-25T08:38:00.597Z,28.58
2018-07-25T08:40:29.299Z,28.68
2018-07-25T08:42:58.571Z,28.73
2018-07-25T08:45:27.271Z,28.89
2018-07-25T08:47:55.877Z,29.04
2018-07-25T08:50:24.578Z,29.17
2018-07-25T08:52:53.412Z,29.22
2018-07-25T08:55:22.025Z,29.32
2018-07-25T08:57:50.779Z,29.51
2018-07-25T09:00:19.524Z,29.49
2018-07-25T09:02:48.221Z,29.52
2018-07-25T09:05:16.831Z,29.64
2018-07-25T09:07:45.615Z,29.75
2018-07-25T09:10:14.286Z,29.68
2018-07-25T09:12:43.080Z,29.79
2018-07-25T09:15:11.936Z,29.98
2018-07-25T09:17:40.702Z,30.12
2018-07-25T09:20:09.481Z,30.22
2018-07-25T09:22:38.218Z,30.26
2018-07-25T09:25:07.055Z,30.27
2018-07-25T09:27:35.809Z,30.26
2018-07-25T09:30:05.793Z,30.40
2018-07-25T09:32:34.435Z,30.51
2018-07-25T09:35:03.325Z,30.55
2018-07-25T09:37:31.915Z,30.62
2018-07-25T09:40:00.616Z,30.74
2018-07-25T09:42:30.360Z,30.85
2018-07-25T09:44:59.112Z,31.01
2018-07-25T09:47:27.769Z,31.13
2018-07-25T09:49:56.421Z,31.18
2018-07-25T09:52:25.145Z,31.12
2018-07-25T09:54:53.909Z,31.08
2018-07-25T09:57:22.549Z,31.17
2018-07-25T09:59:51.411Z,31.27
2018-07-25T10:02:20.154Z,31.37
2018-07-25T10:04:56.062Z,31.48
2018-07-25T10:07:24.853Z,31.63
2018-07-25T10:09:53.657Z,31.75
2018-07-25T10:12:23.228Z,31.73
2018-07-25T10:14:52.049Z,31.81
2018-07-25T10:17:20.631Z,31.87
2018-07-25T10:19:49.281Z,31.97
2018-07-25T10:22:17.851Z,32.05
2018-07-25T10:24:49.989Z,32.03
2018-07-25T10:27:18.749Z,32.05
2018-07-25T10:29:47.456Z,32.25
2018-07-25T10:32:16.159Z,32.54
2018-07-25T10:34:44.959Z,32.58
2018-07-25T10:37:13.497Z,32.55
2018-07-25T10:39:42.216Z,32.57
2018-07-25T10:42:11.201Z,32.61
2018-07-25T10:44:39.916Z,32.69
2018-07-25T10:47:08.582Z,32.85
2018-07-25T10:49:37.356Z,32.95
2018-07-25T10:52:05.957Z,32.98
2018-07-25T10:54:34.851Z,32.99
2018-07-25T10:57:03.515Z,33.15
2018-07-25T10:59:32.259Z,33.32
2018-07-25T11:02:03.241Z,33.46
2018-07-25T11:04:31.856Z,33.54
2018-07-25T11:07:00.406Z,33.54
2018-07-25T11:09:29.069Z,33.52
2018-07-25T11:11:57.695Z,33.60
2018-07-25T11:14:27.213Z,33.73
2018-07-25T11:16:55.864Z,33.83
2018-07-25T11:19:24.644Z,34.03
2018-07-25T11:21:53.285Z,34.21
2018-07-25T11:24:21.877Z,34.30
2018-07-25T11:26:50.480Z,34.29
2018-07-25T11:29:19.160Z,34.40
2018-07-25T11:32:00.827Z,34.58
2018-07-25T11:34:30.447Z,34.90
2018-07-25T11:36:59.126Z,35.00
2018-07-25T11:39:27.761Z,35.16
2018-07-25T11:42:07.858Z,35.35
2018-07-25T11:44:36.532Z,35.51
2018-07-25T11:47:12.200Z,35.50
2018-07-25T11:49:40.850Z,35.47
2018-07-25T11:52:09.490Z,35.51
2018-07-25T11:54:38.855Z,35.70
2018-07-25T11:57:07.566Z,35.76
2018-07-25T11:59:36.306Z,35.89
2018-07-25T12:02:04.930Z,35.96
2018-07-25T12:04:33.546Z,36.32
2018-07-25T12:09:31.203Z,37.09
2018-07-25T12:11:59.924Z,37.37
2018-07-25T12:14:28.602Z,37.81
2018-07-25T12:16:57.346Z,37.97
2018-07-25T12:19:25.908Z,37.80
2018-07-25T12:24:35.576Z,38.46
2018-07-25T12:27:04.273Z,38.72
2018-07-25T12:29:32.934Z,38.90
2018-07-25T12:32:08.719Z,38.82
2018-07-25T12:34:37.374Z,38.47
2018-07-25T12:37:13.809Z,38.24
2018-07-25T12:39:42.578Z,38.26
2018-07-25T12:42:11.496Z,38.41
2018-07-25T12:44:40.195Z,38.38
2018-07-25T12:47:10.098Z,38.26
2018-07-25T12:49:38.734Z,37.97
2018-07-25T12:52:07.558Z,37.39
2018-07-25T12:54:36.251Z,37.09
2018-07-25T12:57:05.163Z,36.80
2018-07-25T12:59:33.807Z,36.57
2018-07-25T13:02:02.621Z,36.35
2018-07-25T13:04:31.241Z,36.12
2018-07-25T13:06:59.997Z,35.93
2018-07-25T13:09:28.708Z,35.66
2018-07-25T13:11:57.344Z,35.65
2018-07-25T13:14:25.923Z,35.51
2018-07-25T13:16:54.763Z,35.39
2018-07-25T13:19:23.409Z,35.24
2018-07-25T13:21:52.210Z,35.11
2018-07-25T13:24:20.893Z,35.10
2018-07-25T13:27:12.595Z,35.12
2018-07-25T13:29:41.395Z,35.28
2018-07-25T13:32:10.113Z,35.50
2018-07-25T13:34:38.778Z,36.97
2018-07-25T13:37:08.131Z,38.93
2018-07-25T13:39:36.715Z,38.71
2018-07-25T13:42:05.425Z,38.18
2018-07-25T13:44:34.076Z,37.38
2018-07-25T13:47:02.842Z,36.65
2018-07-25T13:49:31.506Z,37.24
2018-07-25T13:52:00.427Z,39.53
2018-07-25T13:54:28.995Z,41.08
2018-07-25T13:56:57.787Z,42.57
2018-07-25T13:59:26.411Z,44.40
2018-07-25T14:01:55.131Z,45.24
2018-07-25T14:04:23.766Z,45.32
2018-07-25T14:06:53.536Z,43.96
2018-07-25T14:09:22.107Z,43.58
2018-07-25T14:11:50.910Z,45.09
2018-07-25T14:14:19.765Z,45.92
2018-07-25T14:16:49.581Z,47.04
2018-07-25T14:19:23.239Z,47.04
2018-07-25T14:21:51.933Z,45.43
2018-07-25T14:24:20.634Z,42.89
2018-07-25T14:26:49.321Z,43.00
2018-07-25T14:29:18.065Z,42.07
2018-07-25T14:31:46.697Z,40.68
2018-07-25T14:34:15.363Z,39.62
2018-07-25T14:36:44.067Z,38.79
2018-07-25T14:39:13.021Z,38.77
2018-07-25T14:41:42.161Z,40.16
2018-07-25T14:44:11.328Z,40.77
2018-07-25T14:46:39.965Z,39.84
2018-07-25T14:49:08.648Z,39.00
2018-07-25T14:51:37.513Z,38.47
2018-07-25T14:54:06.210Z,38.38
2018-07-25T14:56:34.899Z,39.26
2018-07-25T14:59:04.715Z,39.41
2018-07-25T15:01:33.521Z,39.00
2018-07-25T15:04:02.184Z,38.49
2018-07-25T15:06:30.823Z,38.23
2018-07-25T15:08:59.556Z,37.78
2018-07-25T15:11:29.928Z,37.38
2018-07-25T15:14:09.710Z,36.98
2018-07-25T15:16:52.669Z,36.70
2018-07-25T15:19:22.529Z,36.47
2018-07-25T15:21:51.263Z,36.27
2018-07-25T15:24:19.944Z,36.26
2018-07-25T15:26:48.752Z,35.94
2018-07-25T15:29:17.524Z,35.53
2018-07-25T15:34:15.022Z,34.91
2018-07-25T15:36:49.088Z,34.73
2018-07-25T15:39:23.834Z,34.57
2018-07-25T15:41:53.279Z,34.42
2018-07-25T15:44:22.986Z,34.21
2018-07-25T15:46:51.754Z,33.94
2018-07-25T15:49:20.581Z,33.69
2018-07-25T15:51:49.604Z,33.40
2018-07-25T15:54:18.426Z,33.04
2018-07-25T15:56:47.197Z,32.79
2018-07-25T15:59:15.927Z,32.56
2018-07-25T16:01:44.628Z,32.34
2018-07-25T16:04:13.285Z,31.75
2018-07-25T16:06:42.094Z,31.30
2018-07-25T16:09:12.476Z,30.64
2018-07-25T16:11:41.778Z,30.29
2018-07-25T16:14:10.373Z,30.12
2018-07-25T16:16:47.652Z,30.16
2018-07-25T16:19:16.586Z,30.26
2018-07-25T16:21:45.302Z,30.31
2018-07-25T16:24:14.114Z,30.36
2018-07-25T16:26:42.892Z,30.27
2018-07-25T16:29:12.510Z,30.21
2018-07-25T16:31:41.521Z,30.14
2018-07-25T16:34:10.218Z,30.04
2018-07-25T16:36:38.999Z,29.95
2018-07-25T16:39:10.676Z,29.84
2018-07-25T16:41:39.430Z,29.75
2018-07-25T16:44:08.140Z,29.75
2018-07-25T16:46:36.907Z,29.74
2018-07-25T16:49:05.858Z,29.56
2018-07-25T16:51:34.974Z,29.42
2018-07-25T16:54:03.882Z,29.36
2018-07-25T16:56:32.682Z,29.21
2018-07-25T16:59:01.353Z,29.34
2018-07-25T17:01:30.063Z,29.25
2018-07-25T17:03:58.890Z,29.13
2018-07-25T17:06:27.641Z,28.98
2018-07-25T17:08:56.387Z,28.79
2018-07-25T17:11:25.190Z,28.57
2018-07-25T17:13:53.802Z,28.43
2018-07-25T17:16:22.554Z,28.34
2018-07-25T17:18:51.299Z,28.31
2018-07-25T17:21:20.051Z,28.25
2018-07-25T17:23:48.844Z,28.23
2018-07-25T17:26:17.463Z,28.23
2018-07-25T17:28:46.165Z,28.17
2018-07-25T17:31:14.921Z,28.09
2018-07-25T17:33:43.706Z,28.04
2018-07-25T17:36:12.453Z,27.90
2018-07-25T17:38:41.238Z,27.82
2018-07-25T17:41:10.064Z,27.77
2018-07-25T17:43:38.749Z,27.70
2018-07-25T17:46:07.416Z,27.62
2018-07-25T17:48:37.199Z,27.56
2018-07-25T17:51:05.981Z,27.55
2018-07-25T17:53:34.664Z,27.51
2018-07-25T17:56:03.463Z,27.40
2018-07-25T17:58:32.292Z,27.38
2018-07-25T18:01:00.975Z,27.38
2018-07-25T18:03:29.844Z,27.36
2018-07-25T18:05:58.483Z,27.35
2018-07-25T18:08:27.166Z,27.34
2018-07-25T18:10:55.868Z,27.34
2018-07-25T18:13:29.685Z,27.31
2018-07-25T18:15:58.404Z,27.29
2018-07-25T18:18:27.087Z,27.28
2018-07-25T18:20:55.872Z,27.33
2018-07-25T18:23:24.590Z,27.40
2018-07-25T18:25:53.374Z,27.37
2018-07-25T18:28:22.066Z,27.29
2018-07-25T18:30:50.893Z,27.23
2018-07-25T18:33:19.585Z,27.16
2018-07-25T18:35:48.300Z,27.07
2018-07-25T18:38:17.109Z,26.98
2018-07-25T18:40:45.849Z,26.95
2018-07-25T18:43:14.538Z,26.85
2018-07-25T18:45:43.205Z,26.84
2018-07-25T18:48:11.855Z,26.66
2018-07-25T18:50:40.561Z,26.54
2018-07-25T18:53:09.292Z,26.46
2018-07-25T18:55:38.015Z,26.41
2018-07-25T18:58:06.698Z,26.38
2018-07-25T19:00:35.460Z,26.30
2018-07-25T19:03:04.176Z,26.24
2018-07-25T19:05:32.967Z,26.25
2018-07-25T19:08:02.783Z,26.21
2018-07-25T19:10:31.959Z,26.22
2018-07-25T19:13:00.608Z,26.20
2018-07-25T19:15:30.891Z,26.22
2018-07-25T19:18:00.370Z,26.13
2018-07-25T19:20:32.887Z,26.11
2018-07-25T19:23:01.596Z,26.02
2018-07-25T19:25:30.373Z,25.95
2018-07-25T19:27:59.126Z,25.84
2018-07-25T19:30:27.885Z,25.82
2018-07-25T19:32:57.602Z,25.79
2018-07-25T19:35:26.324Z,25.74
2018-07-25T19:37:55.142Z,25.70
2018-07-25T19:40:23.721Z,25.63
2018-07-25T19:42:52.596Z,25.60
2018-07-25T19:45:21.370Z,25.52
2018-07-25T19:47:50.018Z,25.45
2018-07-25T19:50:19.310Z,25.43
2018-07-25T19:52:48.093Z,25.36
2018-07-25T19:55:16.816Z,25.29
2018-07-25T19:57:45.476Z,25.21
2018-07-25T20:00:16.551Z,25.14
2018-07-25T20:02:42.913Z,25.11
2018-07-25T20:05:11.840Z,25.10
2018-07-25T20:07:40.596Z,25.08
2018-07-25T20:10:09.381Z,25.01
2018-07-25T20:12:38.063Z,24.91
2018-07-25T20:15:12.271Z,24.86
2018-07-25T20:17:40.839Z,24.77
2018-07-25T20:20:10.109Z,24.70
2018-07-25T20:22:38.840Z,24.62
2018-07-25T20:25:07.592Z,24.54
2018-07-25T20:27:36.406Z,24.40
2018-07-25T20:30:06.325Z,24.24
2018-07-25T20:32:35.174Z,24.11
2018-07-25T20:35:04.026Z,23.97
2018-07-25T20:37:32.667Z,23.89
2018-07-25T20:40:01.468Z,23.85
2018-07-25T20:42:30.229Z,23.76
2018-07-25T20:44:58.933Z,23.72
2018-07-25T20:47:27.573Z,23.68
2018-07-25T20:49:56.299Z,23.62
2018-07-25T20:52:24.938Z,23.67
2018-07-25T20:54:53.690Z,23.67
2018-07-25T20:57:22.534Z,23.67
2018-07-25T20:59:51.356Z,23.82
2018-07-25T21:02:20.238Z,23.86
2018-07-25T21:04:48.844Z,23.86
2018-07-25T21:07:18.594Z,23.80
2018-07-25T21:09:47.363Z,23.65
2018-07-25T21:12:16.091Z,23.49
2018-07-25T21:14:44.836Z,23.36
2018-07-25T21:17:13.506Z,23.31
2018-07-25T21:19:42.237Z,23.28
2018-07-25T21:22:10.990Z,23.16
2018-07-25T21:24:39.913Z,23.05
2018-07-25T21:27:08.526Z,22.99
2018-07-25T21:29:37.322Z,22.99
2018-07-25T21:32:06.053Z,22.97
2018-07-25T21:34:34.649Z,22.88
2018-07-25T21:37:03.385Z,22.83
2018-07-25T21:39:32.167Z,22.74
2018-07-25T21:42:00.709Z,22.60
2018-07-25T21:44:29.433Z,22.48
2018-07-25T21:46:58.017Z,22.50
2018-07-25T21:49:26.819Z,22.54
2018-07-25T21:51:55.355Z,22.60
2018-07-25T21:54:23.964Z,22.70
2018-07-25T21:56:52.606Z,22.72
2018-07-25T21:59:21.199Z,22.59
2018-07-25T22:01:49.816Z,22.42
2018-07-25T22:04:18.573Z,22.21
2018-07-25T22:06:47.391Z,22.04
2018-07-25T22:09:16.125Z,21.89
2018-07-25T22:11:44.752Z,21.78
2018-07-25T22:14:13.451Z,21.69
2018-07-25T22:16:42.110Z,21.59
2018-07-25T22:19:10.812Z,21.54
2018-07-25T22:21:39.469Z,21.50
2018-07-25T22:24:08.151Z,21.44
2018-07-25T22:26:36.892Z,21.37
2018-07-25T22:29:06.002Z,21.27
2018-07-25T22:31:35.670Z,21.21
2018-07-25T22:34:04.397Z,21.17
2018-07-25T22:36:33.019Z,21.12
2018-07-25T22:39:01.715Z,21.18
2018-07-25T22:41:30.317Z,21.22
2018-07-25T22:43:59.009Z,21.15
2018-07-25T22:46:27.715Z,21.11
2018-07-25T22:48:56.353Z,21.09
2018-07-25T22:51:24.995Z,21.10
2018-07-25T22:53:53.695Z,21.15
2018-07-25T22:56:22.337Z,21.22
2018-07-25T22:58:51.003Z,21.13
2018-07-25T23:01:19.532Z,21.10
2018-07-25T23:03:48.174Z,20.98
2018-07-25T23:06:16.769Z,20.81
2018-07-25T23:08:45.534Z,20.64
2018-07-25T23:11:14.348Z,20.51
2018-07-25T23:13:46.107Z,20.41
2018-07-25T23:16:16.315Z,20.34
2018-07-25T23:18:45.623Z,20.28
2018-07-25T23:21:14.371Z,20.21
2018-07-25T23:23:43.114Z,20.16
2018-07-25T23:26:11.756Z,20.10
2018-07-25T23:28:40.286Z,20.04
2018-07-25T23:31:08.975Z,19.97
2018-07-25T23:33:37.580Z,19.92
2018-07-25T23:36:06.294Z,19.95
2018-07-25T23:38:34.904Z,19.94
2018-07-25T23:41:03.621Z,19.87
2018-07-25T23:43:32.268Z,19.84
2018-07-25T23:46:00.909Z,19.79
2018-07-25T23:48:29.582Z,19.76
2018-07-25T23:50:58.099Z,19.76
2018-07-25T23:53:26.720Z,19.75
2018-07-25T23:55:55.427Z,19.69
2018-07-25T23:58:24.682Z,19.63
